Terminal Aerodrome Forecast
Issued by NWS

Home | Current Version | Previous Version | Text Only | Print | Product List | Glossary Off
Versions: 1 2 3 4 5 6 7 8 9 10 11 12

402
FTUS43 KUNR 242320
TAFGCC
TAF
KGCC 242320Z 2500/2524 19011KT P6SM BKN060
     FM250900 25006KT 3SM BR OVC012
     FM251700 28008KT P6SM OVC040=

USA.gov is the U.S. government's official web portal to all federal, state and local government web resources and services.